sensor_id;sensor_type;location;lat;lon;timestamp;pressure;altitude;pressure_sealevel;temperature;humidity
44001;BME280;29660;42.892;24.710;2023-08-20T00:02:37;97301.50;;;17.65;100.00
44001;BME280;29660;42.892;24.710;2023-08-20T00:08:03;97284.84;;;17.63;100.00
44001;BME280;29660;42.892;24.710;2023-08-20T00:13:26;97227.34;;;17.12;100.00
44001;BME280;29660;42.892;24.710;2023-08-20T00:18:48;97283.94;;;17.50;100.00
44001;BME280;29660;42.892;24.710;2023-08-20T00:24:12;97116.00;;;16.52;100.00
44001;BME280;29660;42.892;24.710;2023-08-20T00:29:54;97277.59;;;17.55;100.00
44001;BME280;29660;42.892;24.710;2023-08-20T00:35:16;97279.16;;;17.56;100.00
44001;BME280;29660;42.892;24.710;2023-08-20T00:40:38;97278.75;;;17.45;100.00
44001;BME280;29660;42.892;24.710;2023-08-20T00:46:01;97231.34;;;17.06;100.00
44001;BME280;29660;42.892;24.710;2023-08-20T00:51:24;97190.97;;;16.88;100.00
44001;BME280;29660;42.892;24.710;2023-08-20T00:56:47;97257.81;;;17.42;100.00
44001;BME280;29660;42.892;24.710;2023-08-20T01:02:11;97216.53;;;17.21;100.00
44001;BME280;29660;42.892;24.710;2023-08-20T01:07:43;97146.19;;;16.75;100.00
44001;BME280;29660;42.892;24.710;2023-08-20T01:13:10;97265.63;;;17.35;100.00
44001;BME280;29660;42.892;24.710;2023-08-20T01:18:32;97247.03;;;17.42;100.00
44001;BME280;29660;42.892;24.710;2023-08-20T01:29:27;97237.03;;;17.42;100.00
44001;BME280;29660;42.892;24.710;2023-08-20T01:34:52;97170.06;;;16.85;100.00
44001;BME280;29660;42.892;24.710;2023-08-20T01:40:14;96851.41;;;14.81;100.00
44001;BME280;29660;42.892;24.710;2023-08-20T01:45:37;97259.25;;;17.39;100.00
44001;BME280;29660;42.892;24.710;2023-08-20T01:50:59;65277.72;;;-143.43;100.00
44001;BME280;29660;42.892;24.710;2023-08-20T01:56:21;65277.72;;;-143.43;100.00
44001;BME280;29660;42.892;24.710;2023-08-20T02:01:43;97119.91;;;16.63;100.00
44001;BME280;29660;42.892;24.710;2023-08-20T02:07:06;97248.28;;;17.45;100.00
44001;BME280;29660;42.892;24.710;2023-08-20T02:12:28;97189.63;;;17.12;100.00
44001;BME280;29660;42.892;24.710;2023-08-20T02:17:50;97177.44;;;17.06;100.00
44001;BME280;29660;42.892;24.710;2023-08-20T02:23:12;97234.69;;;17.41;100.00
44001;BME280;29660;42.892;24.710;2023-08-20T02:28:35;97241.22;;;17.31;100.00
44001;BME280;29660;42.892;24.710;2023-08-20T02:33:57;97164.06;;;16.80;100.00
44001;BME280;29660;42.892;24.710;2023-08-20T02:39:20;97167.25;;;16.73;100.00
44001;BME280;29660;42.892;24.710;2023-08-20T02:44:42;97242.63;;;17.29;100.00
44001;BME280;29660;42.892;24.710;2023-08-20T02:50:04;97248.72;;;17.17;100.00
44001;BME280;29660;42.892;24.710;2023-08-20T02:55:28;97206.84;;;16.81;100.00
44001;BME280;29660;42.892;24.710;2023-08-20T03:00:51;97089.22;;;15.91;100.00
44001;BME280;29660;42.892;24.710;2023-08-20T03:06:13;97264.94;;;17.00;100.00
44001;BME280;29660;42.892;24.710;2023-08-20T03:11:35;97264.66;;;16.92;100.00
44001;BME280;29660;42.892;24.710;2023-08-20T03:16:58;97257.34;;;16.93;100.00
44001;BME280;29660;42.892;24.710;2023-08-20T03:22:20;97247.25;;;16.81;100.00
44001;BME280;29660;42.892;24.710;2023-08-20T03:27:43;97265.63;;;16.88;100.00
44001;BME280;29660;42.892;24.710;2023-08-20T03:33:06;97148.06;;;16.02;100.00
44001;BME280;29660;42.892;24.710;2023-08-20T03:38:30;97271.50;;;16.81;100.00
44001;BME280;29660;42.892;24.710;2023-08-20T03:43:52;97272.75;;;16.84;100.00
44001;BME280;29660;42.892;24.710;2023-08-20T03:49:14;97147.44;;;16.05;100.00
44001;BME280;29660;42.892;24.710;2023-08-20T03:54:36;97273.66;;;16.97;100.00
44001;BME280;29660;42.892;24.710;2023-08-20T03:59:59;97278.56;;;17.03;100.00
44001;BME280;29660;42.892;24.710;2023-08-20T04:05:21;97282.53;;;17.06;100.00
44001;BME280;29660;42.892;24.710;2023-08-20T04:10:44;97293.94;;;17.11;100.00
44001;BME280;29660;42.892;24.710;2023-08-20T04:16:07;97291.03;;;17.25;100.00
44001;BME280;29660;42.892;24.710;2023-08-20T04:21:31;97260.63;;;17.16;100.00
44001;BME280;29660;42.892;24.710;2023-08-20T04:26:53;97173.91;;;16.58;100.00
44001;BME280;29660;42.892;24.710;2023-08-20T04:32:20;97291.41;;;17.45;100.00
44001;BME280;29660;42.892;24.710;2023-08-20T04:37:44;97294.25;;;17.57;100.00
44001;BME280;29660;42.892;24.710;2023-08-20T04:43:06;97292.09;;;17.71;100.00
44001;BME280;29660;42.892;24.710;2023-08-20T04:48:47;97281.06;;;17.94;100.00
44001;BME280;29660;42.892;24.710;2023-08-20T04:54:10;97216.28;;;17.64;100.00
44001;BME280;29660;42.892;24.710;2023-08-20T04:59:51;97285.16;;;18.21;100.00
44001;BME280;29660;42.892;24.710;2023-08-20T05:05:31;96963.69;;;16.42;100.00
44001;BME280;29660;42.892;24.710;2023-08-20T05:11:12;97247.28;;;18.83;100.00
44001;BME280;29660;42.892;24.710;2023-08-20T05:16:34;65277.72;;;-143.43;100.00
44001;BME280;29660;42.892;24.710;2023-08-20T05:21:57;65277.72;;;-143.43;100.00
44001;BME280;29660;42.892;24.710;2023-08-20T05:27:24;65277.72;;;-143.43;100.00
44001;BME280;29660;42.892;24.710;2023-08-20T05:32:47;97300.41;;;20.23;100.00
44001;BME280;29660;42.892;24.710;2023-08-20T05:38:09;65277.72;;;-143.43;100.00
44001;BME280;29660;42.892;24.710;2023-08-20T05:43:32;65277.72;;;-143.43;100.00
44001;BME280;29660;42.892;24.710;2023-08-20T05:48:56;65277.72;;;-143.43;100.00
44001;BME280;29660;42.892;24.710;2023-08-20T05:54:18;97303.78;;;20.44;100.00
44001;BME280;29660;42.892;24.710;2023-08-20T05:59:40;97312.66;;;20.57;100.00
44001;BME280;29660;42.892;24.710;2023-08-20T06:05:03;97313.34;;;20.82;100.00
44001;BME280;29660;42.892;24.710;2023-08-20T06:10:30;97326.56;;;21.12;100.00
44001;BME280;29660;42.892;24.710;2023-08-20T06:15:52;65277.72;;;-143.43;100.00
44001;BME280;29660;42.892;24.710;2023-08-20T06:21:15;65277.72;;;-143.43;100.00
44001;BME280;29660;42.892;24.710;2023-08-20T06:26:37;65277.72;;;-143.43;100.00
44001;BME280;29660;42.892;24.710;2023-08-20T06:32:00;65277.72;;;-143.43;100.00
44001;BME280;29660;42.892;24.710;2023-08-20T06:37:22;65277.72;;;-143.43;100.00
44001;BME280;29660;42.892;24.710;2023-08-20T06:42:44;65277.72;;;-143.43;100.00
44001;BME280;29660;42.892;24.710;2023-08-20T06:48:06;97260.91;;;22.98;94.17
44001;BME280;29660;42.892;24.710;2023-08-20T06:53:29;97272.13;;;23.39;86.08
44001;BME280;29660;42.892;24.710;2023-08-20T06:58:51;97295.84;;;23.88;85.55
44001;BME280;29660;42.892;24.710;2023-08-20T07:04:13;97193.38;;;23.53;77.77
44001;BME280;29660;42.892;24.710;2023-08-20T07:09:36;97294.31;;;24.43;79.66
44001;BME280;29660;42.892;24.710;2023-08-20T07:15:00;97298.78;;;24.59;74.30
44001;BME280;29660;42.892;24.710;2023-08-20T07:20:22;97291.91;;;25.06;74.92
44001;BME280;29660;42.892;24.710;2023-08-20T07:25:44;97292.78;;;25.13;67.00
44001;BME280;29660;42.892;24.710;2023-08-20T07:31:30;97193.03;;;24.79;66.48
44001;BME280;29660;42.892;24.710;2023-08-20T07:36:53;97290.25;;;25.79;67.11
44001;BME280;29660;42.892;24.710;2023-08-20T07:42:15;97276.78;;;26.08;62.56
44001;BME280;29660;42.892;24.710;2023-08-20T07:47:40;97284.78;;;26.41;62.89
44001;BME280;29660;42.892;24.710;2023-08-20T07:53:02;97276.72;;;26.70;59.17
44001;BME280;29660;42.892;24.710;2023-08-20T07:58:24;97267.34;;;26.82;57.98
44001;BME280;29660;42.892;24.710;2023-08-20T08:03:47;97219.66;;;26.68;55.34
44001;BME280;29660;42.892;24.710;2023-08-20T08:09:21;97274.50;;;27.26;54.71
44001;BME280;29660;42.892;24.710;2023-08-20T08:14:44;97277.25;;;27.33;52.12
44001;BME280;29660;42.892;24.710;2023-08-20T08:20:07;97278.44;;;27.64;50.58
44001;BME280;29660;42.892;24.710;2023-08-20T08:25:29;97285.47;;;27.69;49.08
44001;BME280;29660;42.892;24.710;2023-08-20T08:30:52;97284.69;;;28.00;50.22
44001;BME280;29660;42.892;24.710;2023-08-20T08:36:14;97292.47;;;28.20;49.11
44001;BME280;29660;42.892;24.710;2023-08-20T08:42:01;65277.72;;;-143.43;100.00
44001;BME280;29660;42.892;24.710;2023-08-20T08:47:27;65277.72;;;-143.43;100.00
44001;BME280;29660;42.892;24.710;2023-08-20T08:52:51;97287.66;;;28.59;45.86
44001;BME280;29660;42.892;24.710;2023-08-20T08:58:15;65277.72;;;-143.43;100.00
44001;BME280;29660;42.892;24.710;2023-08-20T09:03:37;65277.72;;;-143.43;100.00
44001;BME280;29660;42.892;24.710;2023-08-20T09:09:06;65277.72;;;-143.43;100.00
44001;BME280;29660;42.892;24.710;2023-08-20T09:14:29;65277.72;;;-143.43;100.00
44001;BME280;29660;42.892;24.710;2023-08-20T09:19:54;65277.72;;;-143.43;100.00
44001;BME280;29660;42.892;24.710;2023-08-20T09:25:19;97024.66;;;27.99;42.74
44001;BME280;29660;42.892;24.710;2023-08-20T09:30:54;97248.19;;;29.65;40.59
44001;BME280;29660;42.892;24.710;2023-08-20T09:36:17;97155.66;;;29.06;38.28
44001;BME280;29660;42.892;24.710;2023-08-20T09:41:40;97237.88;;;29.76;38.79
44001;BME280;29660;42.892;24.710;2023-08-20T09:47:06;97261.53;;;30.07;38.96
44001;BME280;29660;42.892;24.710;2023-08-20T09:52:35;97159.94;;;29.52;37.69
44001;BME280;29660;42.892;24.710;2023-08-20T09:58:01;97247.88;;;30.35;37.63
44001;BME280;29660;42.892;24.710;2023-08-20T10:03:24;97206.44;;;30.45;36.78
44001;BME280;29660;42.892;24.710;2023-08-20T10:08:46;97247.53;;;30.29;37.81
44001;BME280;29660;42.892;24.710;2023-08-20T10:14:09;97157.25;;;29.86;38.22
44001;BME280;29660;42.892;24.710;2023-08-20T10:19:53;97235.91;;;30.48;38.39
44001;BME280;29660;42.892;24.710;2023-08-20T10:25:23;97149.88;;;30.10;38.04
44001;BME280;29660;42.892;24.710;2023-08-20T10:31:05;97232.50;;;30.68;37.01
44001;BME280;29660;42.892;24.710;2023-08-20T10:36:41;97227.06;;;30.95;36.72
44001;BME280;29660;42.892;24.710;2023-08-20T10:42:22;97225.53;;;31.17;36.01
44001;BME280;29660;42.892;24.710;2023-08-20T10:47:48;97223.78;;;31.31;36.38
44001;BME280;29660;42.892;24.710;2023-08-20T10:53:29;97223.03;;;31.26;36.44
44001;BME280;29660;42.892;24.710;2023-08-20T10:58:51;97223.00;;;31.30;36.43
44001;BME280;29660;42.892;24.710;2023-08-20T11:04:18;97209.34;;;31.46;36.75
44001;BME280;29660;42.892;24.710;2023-08-20T11:09:41;97160.78;;;31.05;36.02
44001;BME280;29660;42.892;24.710;2023-08-20T11:15:04;97205.50;;;31.40;36.59
44001;BME280;29660;42.892;24.710;2023-08-20T11:20:26;97209.22;;;31.53;36.85
44001;BME280;29660;42.892;24.710;2023-08-20T11:25:49;97177.75;;;31.51;37.71
44001;BME280;29660;42.892;24.710;2023-08-20T11:31:12;97138.91;;;31.18;37.38
44001;BME280;29660;42.892;24.710;2023-08-20T11:36:35;97182.97;;;31.45;37.42
44001;BME280;29660;42.892;24.710;2023-08-20T11:41:58;97074.97;;;31.07;37.62
44001;BME280;29660;42.892;24.710;2023-08-20T11:47:40;97179.88;;;31.63;37.73
44001;BME280;29660;42.892;24.710;2023-08-20T11:53:02;97177.66;;;31.78;36.68
44001;BME280;29660;42.892;24.710;2023-08-20T11:58:28;97173.50;;;32.10;35.05
44001;BME280;29660;42.892;24.710;2023-08-20T12:03:50;97079.72;;;31.70;35.77
44001;BME280;29660;42.892;24.710;2023-08-20T12:09:22;97160.72;;;31.99;34.73
44001;BME280;29660;42.892;24.710;2023-08-20T12:14:45;97154.75;;;32.21;34.41
44001;BME280;29660;42.892;24.710;2023-08-20T12:20:07;97154.31;;;32.22;35.01
44001;BME280;29660;42.892;24.710;2023-08-20T12:25:35;97148.72;;;32.26;34.48
44001;BME280;29660;42.892;24.710;2023-08-20T12:30:57;97048.81;;;31.78;34.41
44001;BME280;29660;42.892;24.710;2023-08-20T12:36:20;97133.38;;;32.45;33.59
44001;BME280;29660;42.892;24.710;2023-08-20T12:41:42;96999.00;;;31.49;33.95
44001;BME280;29660;42.892;24.710;2023-08-20T12:47:05;97124.31;;;32.61;34.26
44001;BME280;29660;42.892;24.710;2023-08-20T12:52:27;97042.53;;;32.14;33.94
44001;BME280;29660;42.892;24.710;2023-08-20T12:57:56;97120.97;;;32.69;33.87
44001;BME280;29660;42.892;24.710;2023-08-20T13:03:19;97074.56;;;32.28;33.59
44001;BME280;29660;42.892;24.710;2023-08-20T13:08:42;97115.19;;;32.80;33.50
44001;BME280;29660;42.892;24.710;2023-08-20T13:14:04;97040.28;;;32.09;33.69
44001;BME280;29660;42.892;24.710;2023-08-20T13:19:26;97103.53;;;32.72;33.09
44001;BME280;29660;42.892;24.710;2023-08-20T13:24:49;97096.03;;;32.57;33.87
44001;BME280;29660;42.892;24.710;2023-08-20T13:30:11;97073.59;;;32.55;33.55
44001;BME280;29660;42.892;24.710;2023-08-20T13:35:33;97089.72;;;32.89;33.31
44001;BME280;29660;42.892;24.710;2023-08-20T13:40:56;97083.41;;;32.88;33.77
44001;BME280;29660;42.892;24.710;2023-08-20T13:46:19;97096.91;;;32.86;33.98
44001;BME280;29660;42.892;24.710;2023-08-20T13:51:42;97097.06;;;32.79;33.38
44001;BME280;29660;42.892;24.710;2023-08-20T13:57:05;97082.91;;;32.77;34.10
44001;BME280;29660;42.892;24.710;2023-08-20T14:02:27;97081.72;;;32.78;34.28
44001;BME280;29660;42.892;24.710;2023-08-20T14:07:49;97091.72;;;32.72;34.00
44001;BME280;29660;42.892;24.710;2023-08-20T14:13:12;97090.34;;;32.80;34.16
44001;BME280;29660;42.892;24.710;2023-08-20T14:18:34;97082.03;;;32.80;33.50
44001;BME280;29660;42.892;24.710;2023-08-20T14:23:56;97045.78;;;32.45;34.32
44001;BME280;29660;42.892;24.710;2023-08-20T14:29:18;97079.22;;;32.67;33.88
44001;BME280;29660;42.892;24.710;2023-08-20T14:34:41;97036.78;;;32.25;34.22
44001;BME280;29660;42.892;24.710;2023-08-20T14:40:03;97094.31;;;32.46;33.75
44001;BME280;29660;42.892;24.710;2023-08-20T14:45:28;97074.34;;;32.39;34.46
44001;BME280;29660;42.892;24.710;2023-08-20T14:51:08;97092.84;;;32.38;35.10
44001;BME280;29660;42.892;24.710;2023-08-20T14:56:50;97095.59;;;32.22;35.10
44001;BME280;29660;42.892;24.710;2023-08-20T15:02:30;96999.63;;;31.57;35.24
44001;BME280;29660;42.892;24.710;2023-08-20T15:07:53;97048.25;;;31.87;35.48
44001;BME280;29660;42.892;24.710;2023-08-20T15:13:15;97093.19;;;32.24;34.16
44001;BME280;29660;42.892;24.710;2023-08-20T15:18:37;97097.66;;;32.18;34.53
44001;BME280;29660;42.892;24.710;2023-08-20T15:24:00;97091.56;;;32.07;35.43
44001;BME280;29660;42.892;24.710;2023-08-20T15:29:22;97036.44;;;31.67;35.50
44001;BME280;29660;42.892;24.710;2023-08-20T15:34:44;97069.25;;;31.81;35.21
44001;BME280;29660;42.892;24.710;2023-08-20T15:40:07;97105.94;;;31.78;36.13
44001;BME280;29660;42.892;24.710;2023-08-20T15:45:33;97101.91;;;31.83;35.94
44001;BME280;29660;42.892;24.710;2023-08-20T15:50:56;97095.69;;;31.78;34.70
44001;BME280;29660;42.892;24.710;2023-08-20T15:56:37;97102.63;;;31.67;34.85
44001;BME280;29660;42.892;24.710;2023-08-20T16:02:00;97040.50;;;31.19;35.79
44001;BME280;29660;42.892;24.710;2023-08-20T16:07:41;97013.19;;;30.85;36.83
44001;BME280;29660;42.892;24.710;2023-08-20T16:13:04;97093.50;;;31.26;37.30
44001;BME280;29660;42.892;24.710;2023-08-20T16:18:27;97104.47;;;31.07;38.66
44001;BME280;29660;42.892;24.710;2023-08-20T16:23:49;97107.00;;;30.74;40.09
44001;BME280;29660;42.892;24.710;2023-08-20T16:29:11;97086.31;;;30.35;41.62
44001;BME280;29660;42.892;24.710;2023-08-20T16:34:33;97116.38;;;30.22;43.91
44001;BME280;29660;42.892;24.710;2023-08-20T16:39:57;97130.13;;;29.88;45.54
44001;BME280;29660;42.892;24.710;2023-08-20T16:45:19;97077.81;;;29.20;45.80
44001;BME280;29660;42.892;24.710;2023-08-20T16:51:00;97012.59;;;28.41;45.91
44001;BME280;29660;42.892;24.710;2023-08-20T16:56:22;97134.59;;;28.89;47.96
44001;BME280;29660;42.892;24.710;2023-08-20T17:01:45;97133.25;;;28.52;50.01
44001;BME280;29660;42.892;24.710;2023-08-20T17:07:27;97144.78;;;28.18;51.53
44001;BME280;29660;42.892;24.710;2023-08-20T17:12:50;97121.84;;;27.69;52.10
44001;BME280;29660;42.892;24.710;2023-08-20T17:18:12;97152.41;;;27.57;53.58
44001;BME280;29660;42.892;24.710;2023-08-20T17:23:34;97169.66;;;27.29;56.15
44001;BME280;29660;42.892;24.710;2023-08-20T17:28:56;97129.75;;;26.88;58.20
44001;BME280;29660;42.892;24.710;2023-08-20T17:34:19;97155.91;;;26.72;59.90
44001;BME280;29660;42.892;24.710;2023-08-20T17:39:41;97141.38;;;26.39;60.98
44001;BME280;29660;42.892;24.710;2023-08-20T17:45:04;97124.88;;;26.03;61.55
44001;BME280;29660;42.892;24.710;2023-08-20T17:50:26;97165.47;;;26.01;68.41
44001;BME280;29660;42.892;24.710;2023-08-20T17:55:48;97195.88;;;25.92;71.18
44001;BME280;29660;42.892;24.710;2023-08-20T18:01:11;97140.91;;;25.35;69.86
44001;BME280;29660;42.892;24.710;2023-08-20T18:06:33;97206.59;;;25.60;69.74
44001;BME280;29660;42.892;24.710;2023-08-20T18:11:55;97218.22;;;25.50;68.42
44001;BME280;29660;42.892;24.710;2023-08-20T18:17:17;97215.00;;;25.37;67.81
44001;BME280;29660;42.892;24.710;2023-08-20T18:22:40;97223.53;;;25.29;68.36
44001;BME280;29660;42.892;24.710;2023-08-20T18:28:02;97135.16;;;24.59;69.43
44001;BME280;29660;42.892;24.710;2023-08-20T18:33:25;97242.75;;;25.02;71.67
44001;BME280;29660;42.892;24.710;2023-08-20T18:38:49;97245.72;;;24.86;72.20
44001;BME280;29660;42.892;24.710;2023-08-20T18:44:11;97252.94;;;24.71;73.77
44001;BME280;29660;42.892;24.710;2023-08-20T18:49:33;97256.66;;;24.53;75.24
44001;BME280;29660;42.892;24.710;2023-08-20T18:54:56;97261.19;;;24.41;76.30
44001;BME280;29660;42.892;24.710;2023-08-20T19:00:18;97251.56;;;24.21;77.41
44001;BME280;29660;42.892;24.710;2023-08-20T19:05:45;97272.50;;;24.13;79.74
44001;BME280;29660;42.892;24.710;2023-08-20T19:11:07;97245.88;;;23.76;80.46
44001;BME280;29660;42.892;24.710;2023-08-20T19:16:30;96984.78;;;21.86;81.39
44001;BME280;29660;42.892;24.710;2023-08-20T19:22:10;97294.66;;;23.62;83.96
44001;BME280;29660;42.892;24.710;2023-08-20T19:27:33;97298.31;;;23.47;85.66
44001;BME280;29660;42.892;24.710;2023-08-20T19:32:55;97237.72;;;22.85;87.97
44001;BME280;29660;42.892;24.710;2023-08-20T19:38:19;97278.00;;;22.98;89.74
44001;BME280;29660;42.892;24.710;2023-08-20T19:43:42;97288.69;;;22.88;89.75
44001;BME280;29660;42.892;24.710;2023-08-20T19:49:04;97179.75;;;21.99;90.75
44001;BME280;29660;42.892;24.710;2023-08-20T19:54:26;97310.72;;;22.63;93.95
44001;BME280;29660;42.892;24.710;2023-08-20T19:59:48;97299.72;;;22.56;93.66
44001;BME280;29660;42.892;24.710;2023-08-20T20:05:11;97307.28;;;22.47;94.12
44001;BME280;29660;42.892;24.710;2023-08-20T20:10:34;97290.19;;;22.11;95.44
44001;BME280;29660;42.892;24.710;2023-08-20T20:15:58;97173.78;;;21.23;96.39
44001;BME280;29660;42.892;24.710;2023-08-20T20:21:21;97297.00;;;21.86;97.93
44001;BME280;29660;42.892;24.710;2023-08-20T20:27:02;97309.97;;;21.76;99.37
44001;BME280;29660;42.892;24.710;2023-08-20T20:32:24;97312.34;;;21.62;100.00
44001;BME280;29660;42.892;24.710;2023-08-20T20:37:47;97317.16;;;21.53;100.00
44001;BME280;29660;42.892;24.710;2023-08-20T20:43:10;97321.09;;;21.40;100.00
44001;BME280;29660;42.892;24.710;2023-08-20T20:48:33;97314.81;;;21.36;100.00
44001;BME280;29660;42.892;24.710;2023-08-20T20:53:55;97313.00;;;21.27;100.00
44001;BME280;29660;42.892;24.710;2023-08-20T20:59:38;97312.63;;;21.13;100.00
44001;BME280;29660;42.892;24.710;2023-08-20T21:05:00;96929.91;;;18.56;100.00
44001;BME280;29660;42.892;24.710;2023-08-20T21:10:22;97308.69;;;20.95;100.00
44001;BME280;29660;42.892;24.710;2023-08-20T21:15:44;97332.22;;;20.78;100.00
44001;BME280;29660;42.892;24.710;2023-08-20T21:21:25;97318.28;;;20.64;100.00
44001;BME280;29660;42.892;24.710;2023-08-20T21:26:47;97121.94;;;19.25;100.00
44001;BME280;29660;42.892;24.710;2023-08-20T21:32:09;97308.97;;;20.37;100.00
44001;BME280;29660;42.892;24.710;2023-08-20T21:37:32;97269.91;;;19.98;100.00
44001;BME280;29660;42.892;24.710;2023-08-20T21:42:54;97332.09;;;20.34;100.00
44001;BME280;29660;42.892;24.710;2023-08-20T21:48:16;97330.22;;;20.10;100.00
44001;BME280;29660;42.892;24.710;2023-08-20T21:53:38;97344.81;;;19.94;100.00
44001;BME280;29660;42.892;24.710;2023-08-20T21:59:04;97354.72;;;19.90;100.00
44001;BME280;29660;42.892;24.710;2023-08-20T22:04:26;97343.13;;;19.89;100.00
44001;BME280;29660;42.892;24.710;2023-08-20T22:09:48;97346.81;;;19.84;100.00
44001;BME280;29660;42.892;24.710;2023-08-20T22:15:11;97346.63;;;19.77;100.00
44001;BME280;29660;42.892;24.710;2023-08-20T22:20:33;97348.19;;;19.66;100.00
44001;BME280;29660;42.892;24.710;2023-08-20T22:25:55;97341.72;;;19.58;100.00
44001;BME280;29660;42.892;24.710;2023-08-20T22:31:17;97332.56;;;19.51;100.00
44001;BME280;29660;42.892;24.710;2023-08-20T22:36:40;97328.06;;;19.43;100.00
44001;BME280;29660;42.892;24.710;2023-08-20T22:42:02;97333.00;;;19.41;100.00
44001;BME280;29660;42.892;24.710;2023-08-20T22:47:43;97313.25;;;19.28;100.00
44001;BME280;29660;42.892;24.710;2023-08-20T22:53:05;97323.66;;;19.26;100.00
44001;BME280;29660;42.892;24.710;2023-08-20T22:58:27;97341.53;;;19.18;100.00
44001;BME280;29660;42.892;24.710;2023-08-20T23:03:49;97353.94;;;19.19;100.00
44001;BME280;29660;42.892;24.710;2023-08-20T23:09:12;97332.72;;;19.09;100.00
44001;BME280;29660;42.892;24.710;2023-08-20T23:14:34;97330.22;;;19.04;100.00
44001;BME280;29660;42.892;24.710;2023-08-20T23:20:14;97314.59;;;18.76;100.00
44001;BME280;29660;42.892;24.710;2023-08-20T23:25:37;97270.34;;;18.48;100.00
44001;BME280;29660;42.892;24.710;2023-08-20T23:30:59;97213.66;;;18.06;100.00
44001;BME280;29660;42.892;24.710;2023-08-20T23:36:22;97326.56;;;18.87;100.00
44001;BME280;29660;42.892;24.710;2023-08-20T23:41:45;97215.69;;;18.09;100.00
44001;BME280;29660;42.892;24.710;2023-08-20T23:47:07;97330.47;;;18.78;100.00
44001;BME280;29660;42.892;24.710;2023-08-20T23:52:29;97329.59;;;18.65;100.00
44001;BME280;29660;42.892;24.710;2023-08-20T23:57:51;97326.75;;;18.61;100.00
